Time;durP1;ratioP1;P1;durP2;ratioP2;P2;SDS_P1;SDS_P2;PMS_P1;PMS_P2;Temp;Humidity;BMP_temperature;BMP_pressure;BME280_temperature;BME280_humidity;BME280_pressure;Samples;Min_cycle;Max_cycle;Signal;HPM_P1;HPM_P2
2022/02/28 00:01:34;;;;;;;8.93;6.60;;;;;;;3.44;67.81;99473.25;4159625;28;20211;-85
2022/02/28 00:03:39;;;;;;;10.27;6.63;;;;;;;3.48;68.16;99475.75;4180013;28;20202;-84
2022/02/28 00:05:42;;;;;;;8.38;6.40;;;;;;;3.44;68.04;99479.28;4176368;28;20253;-85
2022/02/28 00:07:45;;;;;;;11.30;7.28;;;;;;;3.52;67.58;99481.69;4157590;28;20571;-85
2022/02/28 00:09:48;;;;;;;9.27;5.95;;;;;;;3.45;68.17;99486.13;4155737;28;20286;-85
2022/02/28 00:11:52;;;;;;;8.40;6.65;;;;;;;3.43;68.12;99480.13;4169792;28;20208;-84
2022/02/28 00:13:57;;;;;;;10.32;6.15;;;;;;;3.44;68.25;99478.41;4173706;28;20745;-85
2022/02/28 00:16:00;;;;;;;12.10;8.02;;;;;;;3.43;67.92;99482.72;4158155;28;20185;-85
2022/02/28 00:18:06;;;;;;;10.73;7.35;;;;;;;3.37;68.56;99476.84;4193127;28;20217;-84
2022/02/28 00:20:12;;;;;;;9.80;6.80;;;;;;;3.39;68.49;99475.06;4173016;28;20199;-85
2022/02/28 00:22:16;;;;;;;9.98;7.10;;;;;;;3.35;68.49;99469.13;4170680;28;20211;-85
2022/02/28 00:24:19;;;;;;;10.82;7.18;;;;;;;3.28;68.45;99477.00;4177112;28;20201;-85
2022/02/28 00:26:22;;;;;;;11.57;7.65;;;;;;;3.25;68.65;99469.31;4170376;28;20230;-85
2022/02/28 00:28:25;;;;;;;12.25;8.38;;;;;;;3.27;68.30;99476.13;4170589;28;20224;-85
2022/02/28 00:30:29;;;;;;;15.18;7.50;;;;;;;3.25;68.63;99474.47;4171339;28;20208;-85
2022/02/28 00:32:32;;;;;;;9.43;6.65;;;;;;;3.24;68.55;99469.34;4152957;28;20699;-85
2022/02/28 00:34:36;;;;;;;12.02;7.70;;;;;;;3.26;68.81;99467.56;4154399;28;20219;-85
2022/02/28 00:36:41;;;;;;;11.05;7.82;;;;;;;3.26;68.70;99463.25;4167061;28;20691;-85
2022/02/28 00:38:44;;;;;;;13.05;7.30;;;;;;;3.26;69.05;99467.56;4155536;28;20747;-85
2022/02/28 00:40:47;;;;;;;10.07;7.20;;;;;;;3.25;69.05;99469.31;4171472;28;20683;-85
2022/02/28 00:42:50;;;;;;;9.35;6.50;;;;;;;3.29;68.68;99464.09;4156194;28;20289;-85
2022/02/28 00:44:55;;;;;;;10.93;7.13;;;;;;;3.28;68.73;99469.25;4165462;28;20576;-85
2022/02/28 00:46:58;;;;;;;10.02;6.63;;;;;;;3.30;68.13;99465.75;4174420;28;20272;-85
2022/02/28 00:49:02;;;;;;;8.55;6.35;;;;;;;3.27;68.74;99466.72;4166215;28;20237;-85
2022/02/28 00:51:05;;;;;;;11.77;6.93;;;;;;;3.28;68.80;99464.94;4170562;28;20211;-85
2022/02/28 00:53:10;;;;;;;10.43;7.50;;;;;;;3.29;68.39;99465.78;4156847;28;20235;-85
2022/02/28 00:55:14;;;;;;;11.80;7.07;;;;;;;3.31;67.97;99467.47;4171189;28;20340;-85
2022/02/28 00:57:17;;;;;;;10.30;7.13;;;;;;;3.28;68.41;99470.09;4166332;28;20226;-84
2022/02/28 00:59:20;;;;;;;9.43;7.53;;;;;;;3.20;69.05;99467.69;4152377;28;20229;-86
2022/02/28 01:01:23;;;;;;;9.40;7.45;;;;;;;3.08;69.43;99466.19;4159372;28;20212;-87
2022/02/28 01:03:27;;;;;;;11.63;7.53;;;;;;;3.02;69.29;99475.72;4157341;28;20687;-87
2022/02/28 01:05:32;;;;;;;9.65;6.90;;;;;;;2.98;69.55;99472.34;4157012;28;20242;-86
2022/02/28 01:07:36;;;;;;;10.30;7.20;;;;;;;2.97;69.35;99460.34;4171445;28;20211;-86
2022/02/28 01:09:40;;;;;;;9.40;7.25;;;;;;;2.98;69.10;99459.47;4177460;28;20750;-86
2022/02/28 01:11:43;;;;;;;10.10;6.90;;;;;;;3.06;69.15;99460.19;4177226;28;20269;-86
2022/02/28 01:13:48;;;;;;;11.65;6.90;;;;;;;3.04;68.98;99458.53;4155151;28;20208;-86
2022/02/28 01:15:51;;;;;;;9.85;6.90;;;;;;;3.03;69.23;99464.56;4179486;28;20206;-86
2022/02/28 01:17:54;;;;;;;9.10;6.63;;;;;;;2.96;69.02;99461.25;4175512;28;20219;-85
2022/02/28 01:19:57;;;;;;;9.50;7.03;;;;;;;2.99;69.27;99466.34;4156866;28;20807;-85
2022/02/28 01:22:00;;;;;;;11.05;6.90;;;;;;;2.97;69.33;99456.94;4176689;28;21074;-86
2022/02/28 01:24:03;;;;;;;9.13;7.30;;;;;;;3.01;69.31;99461.16;4162044;28;20207;-85
2022/02/28 01:26:08;;;;;;;8.10;6.47;;;;;;;2.96;69.34;99455.22;4155671;28;20230;-85
2022/02/28 01:28:11;;;;;;;13.02;8.02;;;;;;;2.95;69.12;99458.69;4175611;28;20202;-85
2022/02/28 01:30:14;;;;;;;13.52;7.80;;;;;;;2.93;69.47;99460.41;4156631;28;20233;-85
2022/02/28 01:32:18;;;;;;;11.50;8.23;;;;;;;2.94;69.49;99457.81;4180330;28;20218;-85
2022/02/28 01:34:21;;;;;;;9.77;6.72;;;;;;;2.99;69.09;99457.75;4167567;28;20210;-85
2022/02/28 01:36:24;;;;;;;11.07;7.40;;;;;;;3.02;68.79;99452.53;4175572;28;20206;-85
2022/02/28 01:38:29;;;;;;;11.05;7.40;;;;;;;2.92;69.27;99459.56;4175444;28;20226;-86
2022/02/28 01:40:33;;;;;;;9.40;6.95;;;;;;;2.95;69.02;99461.25;4172935;28;20304;-85
2022/02/28 01:42:37;;;;;;;9.80;6.75;;;;;;;3.02;69.01;99455.13;4181444;28;20217;-85
2022/02/28 01:44:41;;;;;;;10.38;6.70;;;;;;;2.95;69.45;99451.81;4172918;28;20683;-85
2022/02/28 01:46:44;;;;;;;9.68;7.07;;;;;;;2.91;69.19;99452.72;4175593;28;20594;-86
2022/02/28 01:48:47;;;;;;;10.68;6.60;;;;;;;2.88;69.18;99447.59;4170742;28;20207;-86
2022/02/28 01:50:50;;;;;;;9.13;6.47;;;;;;;2.86;69.46;99456.25;4160233;28;20238;-86
2022/02/28 01:52:54;;;;;;;12.30;7.03;;;;;;;2.81;69.38;99452.88;4158201;28;20207;-85
2022/02/28 01:54:57;;;;;;;10.63;7.63;;;;;;;2.78;69.74;99452.94;4155234;28;20207;-85
2022/02/28 01:57:00;;;;;;;10.38;6.68;;;;;;;2.74;69.95;99456.44;4174031;28;20248;-85
2022/02/28 01:59:05;;;;;;;10.88;6.78;;;;;;;2.78;69.56;99457.25;4171772;28;20214;-86
2022/02/28 02:01:08;;;;;;;12.65;7.30;;;;;;;2.72;70.13;99450.50;4157748;28;20316;-85
2022/02/28 02:03:12;;;;;;;10.35;7.05;;;;;;;2.68;69.93;99453.13;4172922;28;20207;-85
2022/02/28 02:05:16;;;;;;;9.75;7.65;;;;;;;2.72;69.89;99453.06;4171515;28;20300;-85
2022/02/28 02:07:20;;;;;;;10.30;7.18;;;;;;;2.73;69.86;99441.03;4157216;28;20322;-86
2022/02/28 02:09:24;;;;;;;12.25;7.78;;;;;;;2.75;69.84;99444.41;4185651;28;20199;-85
2022/02/28 02:11:27;;;;;;;11.90;7.57;;;;;;;2.78;69.67;99450.34;4167383;28;20202;-85
2022/02/28 02:13:31;;;;;;;12.90;7.50;;;;;;;2.79;69.75;99444.34;4175407;28;20297;-86
2022/02/28 02:15:35;;;;;;;10.18;7.47;;;;;;;2.82;69.55;99445.13;4171642;28;20199;-85
2022/02/28 02:17:42;;;;;;;10.50;7.45;;;;;;;2.83;69.85;99452.00;4190896;28;21014;-86
2022/02/28 02:19:46;;;;;;;10.05;7.50;;;;;;;2.84;69.53;99453.72;4178171;28;20640;-86
2022/02/28 02:21:51;;;;;;;9.45;7.15;;;;;;;2.86;69.35;99457.09;4171722;28;20230;-85
2022/02/28 02:23:54;;;;;;;11.38;7.60;;;;;;;2.86;69.42;99456.25;4169039;28;20238;-85
2022/02/28 02:25:59;;;;;;;9.40;7.20;;;;;;;2.88;69.15;99446.78;4170538;28;20649;-86
2022/02/28 02:28:07;;;;;;;9.95;7.30;;;;;;;2.92;69.37;99458.75;4170004;28;20230;-85
2022/02/28 02:30:11;;;;;;;13.55;7.35;;;;;;;2.90;69.00;99453.59;4163259;28;20206;-86
2022/02/28 02:32:18;;;;;;;10.35;6.65;;;;;;;2.91;69.20;99457.03;4155857;28;20651;-86
2022/02/28 02:34:26;;;;;;;10.73;6.85;;;;;;;2.89;68.90;99461.38;4172237;28;20609;-86
2022/02/28 02:36:29;;;;;;;11.35;8.05;;;;;;;2.90;69.14;99460.47;4184739;28;20231;-86
2022/02/28 02:38:35;;;;;;;10.23;7.05;;;;;;;2.95;69.28;99456.94;4171263;28;20976;-86
2022/02/28 02:40:38;;;;;;;11.13;6.47;;;;;;;2.93;68.88;99457.84;4178193;28;20237;-86
2022/02/28 02:42:42;;;;;;;11.82;7.28;;;;;;;2.90;68.75;99448.47;4177637;28;20209;-86
2022/02/28 02:44:45;;;;;;;10.15;7.50;;;;;;;2.93;68.93;99455.25;4159403;28;20687;-85
2022/02/28 02:46:51;;;;;;;11.40;7.82;;;;;;;2.94;69.28;99449.25;4172308;28;20228;-86
2022/02/28 02:48:59;;;;;;;10.88;7.10;;;;;;;2.91;69.28;99445.00;4170330;28;20737;-85
2022/02/28 02:51:02;;;;;;;12.30;7.00;;;;;;;2.89;69.14;99445.91;4175451;28;20218;-86
2022/02/28 02:53:06;;;;;;;10.10;7.32;;;;;;;2.84;69.34;99450.25;4159755;28;20219;-86
2022/02/28 02:55:10;;;;;;;10.93;7.93;;;;;;;2.79;69.53;99448.66;4177175;28;20764;-86
2022/02/28 02:57:16;;;;;;;10.95;7.35;;;;;;;2.75;69.67;99441.84;4154299;28;20195;-86
2022/02/28 02:59:19;;;;;;;11.35;7.68;;;;;;;2.66;69.84;99435.13;4160095;28;20215;-86
2022/02/28 03:01:23;;;;;;;11.27;7.50;;;;;;;2.60;69.99;99435.22;4154648;28;20195;-85
2022/02/28 03:03:27;;;;;;;12.35;7.40;;;;;;;2.54;69.68;99431.88;4172572;28;20782;-85
2022/02/28 03:05:30;;;;;;;11.60;7.47;;;;;;;2.48;70.35;99437.13;4156186;28;20204;-85
2022/02/28 03:07:33;;;;;;;10.02;7.10;;;;;;;2.39;70.38;99438.13;4170476;28;20310;-85
2022/02/28 03:09:37;;;;;;;10.45;7.10;;;;;;;2.39;70.25;99434.69;4171798;28;20210;-86
2022/02/28 03:11:42;;;;;;;11.00;7.68;;;;;;;2.32;70.66;99434.81;4154064;28;20747;-86
2022/02/28 03:13:46;;;;;;;11.73;7.50;;;;;;;2.31;70.91;99439.09;4178793;28;20198;-86
2022/02/28 03:15:49;;;;;;;11.55;6.90;;;;;;;2.32;70.55;99447.69;4171123;28;20751;-85
2022/02/28 03:17:56;;;;;;;11.00;7.82;;;;;;;2.33;70.65;99441.66;4166513;28;20294;-85
2022/02/28 03:20:00;;;;;;;10.57;7.50;;;;;;;2.33;70.83;99446.78;4156565;28;20207;-86
2022/02/28 03:22:04;;;;;;;12.40;8.00;;;;;;;2.35;70.43;99445.91;4169972;28;20206;-86
2022/02/28 03:24:10;;;;;;;13.45;8.10;;;;;;;2.36;70.54;99447.59;4152906;28;20221;-86
2022/02/28 03:26:14;;;;;;;11.85;7.40;;;;;;;2.40;70.26;99456.97;4155609;28;20246;-86
2022/02/28 03:28:19;;;;;;;14.90;8.40;;;;;;;2.44;70.34;99456.06;4155519;28;20219;-86
2022/02/28 03:30:22;;;;;;;10.65;8.02;;;;;;;2.43;70.06;99450.06;4177200;28;20206;-85
2022/02/28 03:32:25;;;;;;;11.10;7.65;;;;;;;2.43;70.16;99451.78;4152925;28;20238;-86
2022/02/28 03:34:29;;;;;;;9.50;8.35;;;;;;;2.43;70.22;99444.91;4185110;28;20205;-86
2022/02/28 03:36:32;;;;;;;12.70;7.90;;;;;;;2.43;70.30;99449.22;4159291;28;20679;-86
2022/02/28 03:38:43;;;;;;;14.68;7.97;;;;;;;2.37;70.26;99449.31;4167811;28;20199;-86
2022/02/28 03:40:48;;;;;;;12.45;7.93;;;;;;;2.40;70.35;99444.09;4168713;28;20210;-86
2022/02/28 03:42:51;;;;;;;11.90;7.50;;;;;;;2.36;70.38;99451.03;4171543;28;20206;-85
2022/02/28 03:44:58;;;;;;;14.52;7.90;;;;;;;2.33;70.42;99445.09;4159141;28;20202;-85
2022/02/28 03:47:02;;;;;;;11.07;7.65;;;;;;;2.33;70.41;99436.50;4159498;28;20608;-85
2022/02/28 03:49:30;;;;;;;10.82;7.70;;;;;;;2.28;70.80;99443.44;4177118;28;20207;-85
2022/02/28 03:51:58;;;;;;;14.43;8.57;;;;;;;2.25;70.68;99444.31;4175487;28;20754;-86
2022/02/28 03:54:26;;;;;;;12.55;7.60;;;;;;;2.17;70.67;99450.47;4156946;28;20213;-86
2022/02/28 03:56:29;;;;;;;11.18;8.00;;;;;;;2.16;71.18;99446.19;4171460;28;20213;-86
2022/02/28 03:58:37;;;;;;;14.00;8.57;;;;;;;2.13;70.95;99448.78;4154523;28;20219;-86
2022/02/28 04:00:42;;;;;;;9.38;7.05;;;;;;;2.14;70.46;99450.50;4177214;28;22210;-86
2022/02/28 04:02:50;;;;;;;11.35;7.80;;;;;;;2.11;70.40;99447.97;4172946;28;20205;-86
2022/02/28 04:04:53;;;;;;;12.30;8.13;;;;;;;2.12;71.02;99457.38;4176964;28;20287;-86
2022/02/28 04:06:58;;;;;;;14.25;8.75;;;;;;;2.14;70.44;99459.06;4174300;28;20222;-85
2022/02/28 04:09:05;;;;;;;11.65;7.90;;;;;;;2.17;71.01;99455.63;4153057;28;20235;-86
2022/02/28 04:11:08;;;;;;;12.48;7.57;;;;;;;2.16;70.75;99457.31;4152701;28;20199;-86
2022/02/28 04:13:11;;;;;;;12.68;7.80;;;;;;;2.15;71.05;99458.22;4170235;28;20210;-85
2022/02/28 04:15:15;;;;;;;12.40;8.20;;;;;;;2.12;70.77;99452.22;4156857;28;20207;-85
2022/02/28 04:17:20;;;;;;;15.00;8.07;;;;;;;2.09;70.97;99441.97;4173123;28;20199;-86
2022/02/28 04:19:26;;;;;;;11.77;8.00;;;;;;;2.07;71.00;99451.44;4171939;28;20192;-86
2022/02/28 04:21:29;;;;;;;13.30;7.55;;;;;;;2.07;70.60;99449.72;4171521;28;20214;-86
2022/02/28 04:23:32;;;;;;;12.90;7.80;;;;;;;2.03;71.01;99445.50;4174990;28;20206;-86
2022/02/28 04:25:37;;;;;;;12.93;8.10;;;;;;;2.03;70.51;99444.63;4170861;28;20751;-86
2022/02/28 04:27:40;;;;;;;13.50;8.15;;;;;;;2.02;70.93;99440.38;4167786;28;20252;-86
2022/02/28 04:29:47;;;;;;;12.60;8.45;;;;;;;1.98;71.12;99434.41;4154390;28;20219;-85
2022/02/28 04:31:55;;;;;;;11.23;7.63;;;;;;;1.97;71.19;99439.56;4174996;28;20324;-86
2022/02/28 04:34:03;;;;;;;10.68;7.85;;;;;;;1.91;70.78;99435.38;4153143;28;20203;-86
2022/02/28 04:36:06;;;;;;;16.98;8.90;;;;;;;1.87;71.28;99436.28;4160761;28;20203;-86
2022/02/28 04:38:09;;;;;;;14.55;8.80;;;;;;;1.87;71.05;99438.00;4159638;28;20209;-86
2022/02/28 04:40:14;;;;;;;10.50;7.78;;;;;;;1.86;71.46;99448.31;4154803;28;20298;-85
2022/02/28 04:42:17;;;;;;;12.63;7.85;;;;;;;1.87;71.07;99445.72;4173414;28;20305;-86
2022/02/28 04:44:23;;;;;;;11.43;8.02;;;;;;;1.82;71.46;99442.38;4169685;28;20203;-85
2022/02/28 04:46:27;;;;;;;12.00;8.13;;;;;;;1.78;71.38;99443.25;4158454;28;20845;-86
2022/02/28 04:48:34;;;;;;;10.68;7.45;;;;;;;1.79;71.95;99442.41;4155140;28;20280;-85
2022/02/28 04:50:56;;;;;;;11.13;7.65;;;;;;;1.78;71.89;99445.81;4179057;28;20207;-86
2022/02/28 04:53:00;;;;;;;11.43;7.32;;;;;;;1.77;71.51;99441.53;4174119;28;20748;-85
2022/02/28 04:55:04;;;;;;;11.55;7.65;;;;;;;1.75;71.51;99443.28;4158184;28;20609;-85
2022/02/28 04:57:07;;;;;;;11.90;8.52;;;;;;;1.72;72.29;99445.06;4176294;28;20203;-86
2022/02/28 04:59:10;;;;;;;13.35;7.70;;;;;;;1.67;72.20;99446.81;4176503;28;20304;-88
2022/02/28 05:01:16;;;;;;;10.48;8.00;;;;;;;1.66;71.65;99442.56;4162331;28;20318;-86
2022/02/28 05:03:22;;;;;;;14.02;8.27;;;;;;;1.67;72.21;99447.69;4157312;28;20617;-86
2022/02/28 05:05:25;;;;;;;15.15;7.97;;;;;;;1.66;71.59;99456.25;4155639;28;20203;-85
2022/02/28 05:07:32;;;;;;;11.88;8.27;;;;;;;1.70;72.10;99447.66;4180041;28;20233;-85
2022/02/28 05:09:35;;;;;;;12.10;7.80;;;;;;;1.68;72.20;99451.94;4178637;28;20847;-85
2022/02/28 05:11:40;;;;;;;12.05;8.07;;;;;;;1.72;71.65;99452.78;4175650;28;20241;-86
2022/02/28 05:13:44;;;;;;;11.50;7.97;;;;;;;1.68;71.88;99454.50;4166482;28;20297;-86
2022/02/28 05:15:47;;;;;;;14.65;8.23;;;;;;;1.69;72.16;99452.81;4188437;28;20693;-86
2022/02/28 05:17:52;;;;;;;11.57;7.50;;;;;;;1.68;71.77;99457.06;4158478;28;20885;-86
2022/02/28 05:19:55;;;;;;;10.20;7.45;;;;;;;1.67;71.72;99452.81;4155292;28;20199;-87
2022/02/28 05:21:58;;;;;;;14.25;8.23;;;;;;;1.65;71.75;99458.84;4172912;28;20311;-86
2022/02/28 05:24:03;;;;;;;13.60;8.50;;;;;;;1.67;71.97;99459.66;4173123;28;20636;-86
2022/02/28 05:26:07;;;;;;;11.30;7.50;;;;;;;1.68;71.97;99463.94;4173879;28;20207;-86
2022/02/28 05:28:14;;;;;;;10.88;8.00;;;;;;;1.71;71.54;99458.78;4167480;28;20678;-86
2022/02/28 05:30:17;;;;;;;11.60;7.68;;;;;;;1.73;72.17;99465.63;4157024;28;20227;-86
2022/02/28 05:32:23;;;;;;;12.23;8.15;;;;;;;1.75;71.42;99458.72;4156534;28;20254;-85
2022/02/28 05:34:49;;;;;;;15.07;9.15;;;;;;;1.77;72.09;99458.69;4173037;28;20207;-85
2022/02/28 05:36:59;;;;;;;13.93;8.55;;;;;;;1.75;71.71;99456.16;4174688;28;20268;-85
2022/02/28 05:39:21;;;;;;;10.02;6.97;;;;;;;1.73;71.31;99463.03;4173289;28;20215;-86
2022/02/28 05:41:24;;;;;;;12.05;8.13;;;;;;;1.75;71.86;99469.00;4155426;28;20207;-85
2022/02/28 05:43:34;;;;;;;13.30;8.75;;;;;;;1.77;71.82;99474.97;4175588;28;20206;-86
2022/02/28 05:45:40;;;;;;;12.15;8.00;;;;;;;1.80;71.60;99469.78;4170809;28;20206;-86
2022/02/28 05:48:10;;;;;;;13.70;8.10;;;;;;;1.86;71.17;99476.59;4171315;28;20288;-85
2022/02/28 05:50:13;;;;;;;11.02;7.63;;;;;;;1.87;70.95;99471.44;4154277;28;20311;-87
2022/02/28 05:52:17;;;;;;;12.10;8.10;;;;;;;1.90;71.05;99477.38;4167376;28;20214;-86
2022/02/28 05:54:21;;;;;;;11.25;7.72;;;;;;;1.93;71.34;99476.50;4170561;28;20198;-86
2022/02/28 05:56:24;;;;;;;12.45;8.73;;;;;;;1.95;71.03;99480.72;4172373;28;20245;-84
2022/02/28 05:58:28;;;;;;;10.82;8.50;;;;;;;1.98;71.76;99482.44;4172786;28;20216;-84
2022/02/28 06:00:31;;;;;;;11.38;8.30;;;;;;;1.99;71.41;99486.72;4171169;28;20224;-84
2022/02/28 06:02:34;;;;;;;14.45;9.15;;;;;;;1.99;71.21;99481.56;4170681;28;20210;-84
2022/02/28 06:04:37;;;;;;;14.00;8.63;;;;;;;1.95;70.98;99480.72;4179281;28;20778;-84
2022/02/28 06:06:41;;;;;;;10.45;8.05;;;;;;;1.95;71.53;99477.31;4172874;28;20198;-84
2022/02/28 06:08:44;;;;;;;12.23;8.60;;;;;;;1.92;71.45;99479.94;4176091;28;20198;-84
2022/02/28 06:10:48;;;;;;;11.85;8.13;;;;;;;1.89;71.29;99491.13;4175168;28;20253;-89
2022/02/28 06:12:51;;;;;;;14.90;8.73;;;;;;;1.89;70.90;99490.25;4171338;28;20249;-87
2022/02/28 06:15:06;;;;;;;14.63;9.05;;;;;;;1.87;71.39;99494.56;4175634;28;20207;-87
2022/02/28 06:17:09;;;;;;;14.23;8.73;;;;;;;1.82;71.38;99500.63;4174055;28;20292;-86
2022/02/28 06:19:18;;;;;;;15.82;8.88;;;;;;;1.83;71.39;99499.75;4177653;28;20221;-85
2022/02/28 06:21:22;;;;;;;10.30;7.60;;;;;;;1.82;71.35;99498.06;4174589;28;20650;-84
2022/02/28 06:23:25;;;;;;;12.48;8.13;;;;;;;1.80;71.49;99503.22;4173105;28;20225;-85
2022/02/28 06:25:28;;;;;;;12.75;8.88;;;;;;;1.82;71.75;99503.19;4154696;28;20207;-85
2022/02/28 06:27:33;;;;;;;12.68;8.25;;;;;;;1.84;71.83;99504.88;4162008;28;20797;-86
2022/02/28 06:29:36;;;;;;;12.73;8.18;;;;;;;1.99;71.20;99510.69;4175737;28;20226;-86
2022/02/28 06:31:44;;;;;;;12.93;8.82;;;;;;;2.16;71.22;99503.63;4178793;28;20286;-86
2022/02/28 06:33:47;;;;;;;18.73;8.70;;;;;;;2.37;70.82;99511.91;4177795;28;20235;-85
2022/02/28 06:35:50;;;;;;;18.15;9.00;;;;;;;2.52;70.96;99506.53;4174491;28;20259;-86
2022/02/28 06:37:53;;;;;;;16.45;9.32;;;;;;;2.64;70.67;99505.53;4156458;28;20203;-85
2022/02/28 06:39:56;;;;;;;19.77;10.30;;;;;;;2.69;70.64;99502.03;4170802;28;20210;-85
2022/02/28 06:42:00;;;;;;;14.48;8.65;;;;;;;2.79;70.51;99505.31;4173095;28;20203;-86
2022/02/28 06:44:05;;;;;;;14.35;8.73;;;;;;;2.91;70.06;99506.81;4171605;28;20206;-86
2022/02/28 06:46:09;;;;;;;12.18;9.35;;;;;;;3.12;69.64;99506.47;4171463;28;21172;-86
2022/02/28 06:48:12;;;;;;;14.48;9.02;;;;;;;3.27;69.08;99504.47;4171545;28;20206;-86
2022/02/28 06:50:15;;;;;;;12.77;10.07;;;;;;;3.43;69.30;99510.25;4171115;28;20219;-85
2022/02/28 06:52:18;;;;;;;15.80;10.65;;;;;;;3.58;69.46;99515.97;4156577;28;20210;-85
2022/02/28 06:54:21;;;;;;;15.85;10.45;;;;;;;3.73;69.24;99505.38;4168638;28;20217;-85
2022/02/28 06:56:24;;;;;;;14.80;10.45;;;;;;;3.88;68.76;99507.66;4173254;28;20212;-85
2022/02/28 06:58:27;;;;;;;14.07;9.43;;;;;;;4.05;68.60;99500.44;4158519;28;20219;-84
2022/02/28 07:00:32;;;;;;;16.42;11.27;;;;;;;4.20;68.42;99498.38;4163935;28;20780;-87
2022/02/28 07:03:01;;;;;;;17.48;10.50;;;;;;;4.36;67.82;99510.06;4179032;28;20203;-84
2022/02/28 07:05:05;;;;;;;15.15;10.02;;;;;;;4.45;65.97;99502.13;4159510;28;20216;-87
2022/02/28 07:07:08;;;;;;;17.77;10.05;;;;;;;4.61;66.16;99519.00;4179472;28;20613;-86
2022/02/28 07:09:12;;;;;;;16.15;9.90;;;;;;;4.67;65.58;99522.28;4160028;28;20750;-86
2022/02/28 07:11:15;;;;;;;14.15;9.70;;;;;;;4.78;66.73;99512.56;4180806;28;20219;-87
2022/02/28 07:13:19;;;;;;;14.25;9.57;;;;;;;4.91;66.19;99516.56;4182375;28;20198;-85
2022/02/28 07:15:23;;;;;;;13.18;9.98;;;;;;;5.03;64.88;99516.28;4172655;28;20401;-86
2022/02/28 07:17:28;;;;;;;11.50;9.30;;;;;;;5.08;65.59;99514.44;4182323;28;20216;-87
2022/02/28 07:19:32;;;;;;;17.50;8.77;;;;;;;5.16;64.54;99514.22;4180425;28;20211;-86
2022/02/28 07:21:35;;;;;;;12.98;9.25;;;;;;;5.15;65.24;99509.91;4170840;28;20211;-87
2022/02/28 07:23:38;;;;;;;12.63;9.10;;;;;;;5.33;66.08;99519.81;4184969;28;20213;-87
2022/02/28 07:25:41;;;;;;;12.55;8.95;;;;;;;5.48;65.56;99508.25;4181547;28;20204;-87
2022/02/28 07:27:45;;;;;;;13.23;9.00;;;;;;;5.53;63.95;99511.56;4178680;28;20208;-86
2022/02/28 07:29:50;;;;;;;24.25;14.15;;;;;;;5.61;64.29;99510.47;4175544;28;20209;-85
2022/02/28 07:31:53;;;;;;;14.25;9.38;;;;;;;5.68;64.04;99507.69;4168429;28;20236;-86
2022/02/28 07:33:58;;;;;;;23.60;11.80;;;;;;;5.82;64.26;99513.38;4184859;28;20298;-87
2022/02/28 07:36:01;;;;;;;14.00;10.20;;;;;;;5.93;64.88;99518.28;4183278;28;20545;-86
2022/02/28 07:38:04;;;;;;;15.05;10.90;;;;;;;6.05;63.93;99511.00;4159369;28;20844;-87
2022/02/28 07:40:09;;;;;;;16.80;10.35;;;;;;;5.95;62.79;99519.91;4170669;28;20277;-86
2022/02/28 07:42:13;;;;;;;18.98;12.02;;;;;;;6.08;64.84;99523.03;4169672;28;20227;-87
2022/02/28 07:44:16;;;;;;;14.50;10.20;;;;;;;6.19;62.58;99514.91;4167994;28;20621;-86
2022/02/28 07:46:19;;;;;;;17.88;9.90;;;;;;;6.21;62.37;99515.72;4174130;28;20227;-89
2022/02/28 07:48:22;;;;;;;14.90;10.82;;;;;;;6.40;63.38;99522.06;4181111;28;20905;-90
2022/02/28 07:50:27;;;;;;;14.52;10.13;;;;;;;6.47;62.40;99513.22;4180254;28;20240;-88
2022/02/28 07:52:30;;;;;;;14.52;10.45;;;;;;;6.53;63.24;99527.75;4169023;28;20663;-88
2022/02/28 07:54:33;;;;;;;13.13;9.60;;;;;;;6.59;62.40;99526.66;4166594;28;20297;-88
2022/02/28 07:56:38;;;;;;;24.50;13.05;;;;;;;6.63;62.47;99530.00;4165465;28;20655;-90
2022/02/28 07:58:41;;;;;;;16.02;11.00;;;;;;;6.72;61.75;99527.13;4190573;28;20220;-90
2022/02/28 08:00:44;;;;;;;17.92;11.75;;;;;;;6.93;63.71;99529.06;4178753;28;20214;-91
2022/02/28 08:02:48;;;;;;;15.60;11.15;;;;;;;7.12;62.08;99531.03;4174290;28;20269;-90
2022/02/28 08:04:51;;;;;;;15.88;10.98;;;;;;;7.13;59.81;99538.78;4180335;28;20814;-91
2022/02/28 08:06:55;;;;;;;15.65;10.57;;;;;;;7.18;61.82;99542.06;4175427;28;20201;-92
2022/02/28 08:08:59;;;;;;;17.48;10.73;;;;;;;7.31;61.71;99543.38;4182539;28;20197;-91
2022/02/28 08:11:03;;;;;;;21.42;11.63;;;;;;;7.41;61.93;99543.94;4169273;28;20232;-86
2022/02/28 08:13:06;;;;;;;15.35;11.05;;;;;;;7.51;61.20;99546.16;4159300;28;20247;-88
2022/02/28 08:15:10;;;;;;;16.58;11.98;;;;;;;7.50;60.05;99544.47;4158615;28;20209;-90
2022/02/28 08:17:13;;;;;;;13.90;10.68;;;;;;;7.54;60.45;99535.69;4176344;28;20208;-91
2022/02/28 08:19:17;;;;;;;18.77;12.20;;;;;;;7.63;60.44;99544.00;4177032;28;20198;-89
2022/02/28 08:21:20;;;;;;;15.38;10.73;;;;;;;7.72;59.95;99546.31;4185159;28;20210;-84
2022/02/28 08:23:25;;;;;;;19.55;11.77;;;;;;;7.80;58.61;99544.28;4172242;28;20237;-90
2022/02/28 08:25:28;;;;;;;14.65;10.98;;;;;;;7.87;59.77;99545.78;4173040;28;20211;-89
2022/02/28 08:27:31;;;;;;;15.95;11.90;;;;;;;7.95;59.50;99542.91;4172213;28;20224;-86
2022/02/28 08:29:34;;;;;;;17.20;12.05;;;;;;;8.07;60.04;99553.72;4158814;28;20243;-90
2022/02/28 08:31:37;;;;;;;15.77;11.60;;;;;;;8.17;58.23;99550.78;4171836;28;20238;-88
2022/02/28 08:33:40;;;;;;;16.65;11.07;;;;;;;8.24;58.42;99541.00;4170538;28;20607;-90
2022/02/28 08:35:43;;;;;;;15.80;11.25;;;;;;;8.33;58.31;99548.47;4169322;28;20264;-89
2022/02/28 08:37:46;;;;;;;14.82;10.13;;;;;;;8.43;57.60;99547.25;4179319;28;20244;-85
2022/02/28 08:39:51;;;;;;;18.60;11.20;;;;;;;8.49;58.36;99555.66;4182251;28;20742;-84
2022/02/28 08:41:54;;;;;;;16.33;11.10;;;;;;;8.65;58.16;99554.22;4156364;28;20208;-91
2022/02/28 08:43:57;;;;;;;17.30;10.50;;;;;;;8.81;59.72;99555.31;4175362;28;20623;-86
2022/02/28 08:46:02;;;;;;;14.82;10.57;;;;;;;8.97;58.79;99552.06;4163108;28;20207;-87
2022/02/28 08:48:06;;;;;;;17.63;11.95;;;;;;;9.00;57.27;99557.16;4178020;28;20214;-86
2022/02/28 08:50:11;;;;;;;14.52;12.02;;;;;;;8.98;57.19;99561.56;4187755;28;20201;-85
2022/02/28 08:52:14;;;;;;;18.75;13.18;;;;;;;9.13;59.40;99558.38;4174039;28;20630;-86
2022/02/28 08:54:17;;;;;;;15.43;11.07;;;;;;;9.26;57.91;99550.03;4166920;28;20561;-87
2022/02/28 08:56:22;;;;;;;21.37;11.83;;;;;;;9.39;58.96;99565.06;4179944;28;20211;-86
2022/02/28 08:58:28;;;;;;;14.13;10.93;;;;;;;9.60;56.85;99568.59;4175095;28;20639;-86
2022/02/28 09:00:31;;;;;;;16.58;11.63;;;;;;;9.74;58.36;99563.66;4173097;28;20230;-87
2022/02/28 09:02:34;;;;;;;14.50;10.93;;;;;;;9.83;57.51;99561.50;4173995;28;20195;-87
2022/02/28 09:04:40;;;;;;;16.90;11.27;;;;;;;9.93;57.87;99566.28;4173459;28;20230;-87
2022/02/28 09:06:44;;;;;;;17.10;10.70;;;;;;;10.01;57.84;99572.06;4173895;28;20673;-87
2022/02/28 09:08:47;;;;;;;17.17;12.35;;;;;;;10.02;55.52;99565.91;4181484;28;20639;-87
2022/02/28 09:10:50;;;;;;;16.13;12.60;;;;;;;10.14;57.56;99568.00;4172338;28;20588;-87
2022/02/28 09:12:55;;;;;;;16.10;12.37;;;;;;;10.23;55.48;99562.38;4161911;28;20656;-88
2022/02/28 09:14:58;;;;;;;15.50;10.85;;;;;;;10.38;54.57;99565.16;4174970;28;20638;-85
2022/02/28 09:17:01;;;;;;;15.40;12.00;;;;;;;10.49;54.85;99567.28;4179917;28;20213;-86
2022/02/28 09:19:04;;;;;;;14.60;11.60;;;;;;;10.52;54.68;99556.72;4179496;28;20641;-85
2022/02/28 09:21:07;;;;;;;13.37;10.70;;;;;;;10.64;54.14;99559.63;4177506;28;20628;-85
2022/02/28 09:23:10;;;;;;;14.33;11.10;;;;;;;10.67;53.08;99563.88;4174543;28;20645;-85
2022/02/28 09:25:13;;;;;;;15.80;11.83;;;;;;;10.76;53.27;99560.84;4167364;28;20676;-87
2022/02/28 09:27:17;;;;;;;16.17;12.33;;;;;;;10.75;52.49;99566.97;4178753;28;20628;-87
2022/02/28 09:29:41;;;;;;;17.33;12.20;;;;;;;10.76;53.90;99556.47;4173136;28;20623;-86
2022/02/28 09:31:44;;;;;;;16.10;11.30;;;;;;;10.78;52.72;99554.66;4169619;28;20675;-87
2022/02/28 09:33:48;;;;;;;15.18;11.15;;;;;;;10.86;53.29;99555.97;4176268;28;20708;-84
2022/02/28 09:35:51;;;;;;;14.67;11.10;;;;;;;10.98;53.25;99549.34;4157268;28;20203;-84
2022/02/28 09:37:55;;;;;;;14.83;11.00;;;;;;;11.05;53.36;99554.22;4161918;28;20637;-85
2022/02/28 09:39:58;;;;;;;15.77;11.37;;;;;;;11.09;52.03;99549.69;4174693;28;20647;-85
2022/02/28 09:42:14;;;;;;;14.50;11.37;;;;;;;11.15;52.47;99550.25;4173589;28;20689;-85
2022/02/28 09:44:36;;;;;;;15.80;11.70;;;;;;;11.18;51.22;99547.47;4169188;28;20631;-86
2022/02/28 09:47:00;;;;;;;16.23;11.93;;;;;;;11.08;51.57;99548.84;4171472;28;20643;-85